sensor_id;sensor_type;location;lat;lon;timestamp;P1;durP1;ratioP1;P2;durP2;ratioP2
6862;SDS011;3470;48.738;9.616;2023-03-31T00:02:03;4.43;;;2.20;;
6862;SDS011;3470;48.738;9.616;2023-03-31T00:04:38;4.03;;;2.00;;
6862;SDS011;3470;48.738;9.616;2023-03-31T00:07:16;8.77;;;2.93;;
6862;SDS011;3470;48.738;9.616;2023-03-31T00:09:46;5.77;;;2.30;;
6862;SDS011;3470;48.738;9.616;2023-03-31T00:12:12;6.00;;;3.03;;
6862;SDS011;3470;48.738;9.616;2023-03-31T00:14:40;3.53;;;2.40;;
6862;SDS011;3470;48.738;9.616;2023-03-31T00:17:07;6.80;;;2.60;;
6862;SDS011;3470;48.738;9.616;2023-03-31T00:19:33;4.30;;;2.20;;
6862;SDS011;3470;48.738;9.616;2023-03-31T00:21:58;5.87;;;2.23;;
6862;SDS011;3470;48.738;9.616;2023-03-31T00:24:26;5.87;;;2.77;;
6862;SDS011;3470;48.738;9.616;2023-03-31T00:26:59;6.17;;;2.47;;
6862;SDS011;3470;48.738;9.616;2023-03-31T00:29:29;6.90;;;2.57;;
6862;SDS011;3470;48.738;9.616;2023-03-31T00:31:55;3.17;;;2.10;;
6862;SDS011;3470;48.738;9.616;2023-03-31T00:34:23;5.53;;;2.40;;
6862;SDS011;3470;48.738;9.616;2023-03-31T00:36:49;5.00;;;2.20;;
6862;SDS011;3470;48.738;9.616;2023-03-31T00:39:16;5.80;;;2.30;;
6862;SDS011;3470;48.738;9.616;2023-03-31T00:41:43;5.87;;;2.27;;
6862;SDS011;3470;48.738;9.616;2023-03-31T00:44:13;4.63;;;2.23;;
6862;SDS011;3470;48.738;9.616;2023-03-31T00:46:48;6.60;;;2.77;;
6862;SDS011;3470;48.738;9.616;2023-03-31T13:40:34;3.60;;;1.47;;
6862;SDS011;3470;48.738;9.616;2023-03-31T17:01:11;1.77;;;1.20;;
6862;SDS011;3470;48.738;9.616;2023-03-31T17:03:37;3.67;;;1.20;;
6862;SDS011;3470;48.738;9.616;2023-03-31T17:06:06;3.73;;;1.50;;
6862;SDS011;3470;48.738;9.616;2023-03-31T18:17:18;4.70;;;1.47;;
6862;SDS011;3470;48.738;9.616;2023-03-31T18:19:43;2.03;;;1.20;;
6862;SDS011;3470;48.738;9.616;2023-03-31T18:22:09;2.90;;;1.20;;
6862;SDS011;3470;48.738;9.616;2023-03-31T18:24:35;3.47;;;1.43;;
6862;SDS011;3470;48.738;9.616;2023-03-31T18:27:02;1.97;;;1.13;;
6862;SDS011;3470;48.738;9.616;2023-03-31T18:29:29;2.30;;;1.20;;
6862;SDS011;3470;48.738;9.616;2023-03-31T18:31:55;2.67;;;1.30;;
6862;SDS011;3470;48.738;9.616;2023-03-31T18:34:21;2.00;;;1.10;;
6862;SDS011;3470;48.738;9.616;2023-03-31T18:36:46;1.57;;;1.30;;
6862;SDS011;3470;48.738;9.616;2023-03-31T18:39:12;2.27;;;1.47;;
6862;SDS011;3470;48.738;9.616;2023-03-31T18:41:43;2.00;;;1.33;;
6862;SDS011;3470;48.738;9.616;2023-03-31T18:44:10;2.63;;;1.37;;
6862;SDS011;3470;48.738;9.616;2023-03-31T18:46:39;4.80;;;1.73;;
6862;SDS011;3470;48.738;9.616;2023-03-31T18:49:06;1.87;;;1.53;;
6862;SDS011;3470;48.738;9.616;2023-03-31T18:51:31;3.87;;;1.40;;
6862;SDS011;3470;48.738;9.616;2023-03-31T18:53:57;4.73;;;1.60;;
6862;SDS011;3470;48.738;9.616;2023-03-31T18:56:22;3.87;;;1.90;;
6862;SDS011;3470;48.738;9.616;2023-03-31T18:58:49;3.80;;;1.83;;
6862;SDS011;3470;48.738;9.616;2023-03-31T19:01:15;3.17;;;1.53;;
6862;SDS011;3470;48.738;9.616;2023-03-31T19:03:41;4.60;;;1.73;;
6862;SDS011;3470;48.738;9.616;2023-03-31T19:06:08;2.80;;;1.63;;
6862;SDS011;3470;48.738;9.616;2023-03-31T19:08:34;4.00;;;1.77;;
6862;SDS011;3470;48.738;9.616;2023-03-31T19:11:04;3.57;;;1.67;;
6862;SDS011;3470;48.738;9.616;2023-03-31T19:13:31;3.20;;;1.87;;
6862;SDS011;3470;48.738;9.616;2023-03-31T19:15:57;4.33;;;1.73;;
6862;SDS011;3470;48.738;9.616;2023-03-31T19:18:23;6.33;;;1.90;;
6862;SDS011;3470;48.738;9.616;2023-03-31T19:20:48;4.80;;;1.83;;
6862;SDS011;3470;48.738;9.616;2023-03-31T19:23:14;3.90;;;1.90;;
6862;SDS011;3470;48.738;9.616;2023-03-31T19:25:40;3.30;;;1.77;;
6862;SDS011;3470;48.738;9.616;2023-03-31T19:28:06;5.73;;;2.37;;
